sensor_id;sensor_type;location;lat;lon;timestamp;P1;durP1;ratioP1;P2;durP2;ratioP2
9948;SDS011;5013;51.840;8.276;2023-07-30T00:01:48;3.97;;;3.67;;
9948;SDS011;5013;51.840;8.276;2023-07-30T00:04:13;5.73;;;4.17;;
9948;SDS011;5013;51.840;8.276;2023-07-30T00:06:39;4.63;;;4.23;;
9948;SDS011;5013;51.840;8.276;2023-07-30T00:09:04;7.13;;;3.90;;
9948;SDS011;5013;51.840;8.276;2023-07-30T00:11:30;4.87;;;4.40;;
9948;SDS011;5013;51.840;8.276;2023-07-30T00:13:55;5.53;;;4.03;;
9948;SDS011;5013;51.840;8.276;2023-07-30T00:16:21;6.70;;;3.83;;
9948;SDS011;5013;51.840;8.276;2023-07-30T00:18:46;5.90;;;4.30;;
9948;SDS011;5013;51.840;8.276;2023-07-30T00:21:12;7.20;;;4.93;;
9948;SDS011;5013;51.840;8.276;2023-07-30T00:23:37;6.87;;;4.57;;
9948;SDS011;5013;51.840;8.276;2023-07-30T00:26:03;5.70;;;5.13;;
9948;SDS011;5013;51.840;8.276;2023-07-30T00:28:29;8.07;;;5.23;;
9948;SDS011;5013;51.840;8.276;2023-07-30T00:30:54;7.63;;;5.00;;
9948;SDS011;5013;51.840;8.276;2023-07-30T00:33:20;7.30;;;4.63;;
9948;SDS011;5013;51.840;8.276;2023-07-30T00:35:45;7.90;;;4.93;;
9948;SDS011;5013;51.840;8.276;2023-07-30T00:38:11;7.97;;;5.23;;
9948;SDS011;5013;51.840;8.276;2023-07-30T00:40:40;12.87;;;5.53;;
9948;SDS011;5013;51.840;8.276;2023-07-30T00:43:06;7.53;;;5.47;;
9948;SDS011;5013;51.840;8.276;2023-07-30T00:45:32;8.20;;;5.40;;
9948;SDS011;5013;51.840;8.276;2023-07-30T00:47:57;8.90;;;4.73;;
9948;SDS011;5013;51.840;8.276;2023-07-30T00:50:23;6.80;;;5.13;;
9948;SDS011;5013;51.840;8.276;2023-07-30T00:52:49;6.03;;;4.57;;
9948;SDS011;5013;51.840;8.276;2023-07-30T00:55:15;6.37;;;4.70;;
9948;SDS011;5013;51.840;8.276;2023-07-30T00:57:41;12.03;;;5.10;;
9948;SDS011;5013;51.840;8.276;2023-07-30T01:00:07;7.87;;;4.80;;
9948;SDS011;5013;51.840;8.276;2023-07-30T01:02:34;6.23;;;4.03;;
9948;SDS011;5013;51.840;8.276;2023-07-30T01:05:01;5.73;;;5.13;;
9948;SDS011;5013;51.840;8.276;2023-07-30T01:07:28;6.80;;;4.90;;
9948;SDS011;5013;51.840;8.276;2023-07-30T01:09:55;7.27;;;4.23;;
9948;SDS011;5013;51.840;8.276;2023-07-30T01:12:20;5.83;;;5.23;;
9948;SDS011;5013;51.840;8.276;2023-07-30T01:14:47;10.83;;;5.43;;
9948;SDS011;5013;51.840;8.276;2023-07-30T01:17:13;8.93;;;6.03;;
9948;SDS011;5013;51.840;8.276;2023-07-30T01:19:39;8.30;;;5.87;;
9948;SDS011;5013;51.840;8.276;2023-07-30T01:22:05;12.33;;;5.40;;
9948;SDS011;5013;51.840;8.276;2023-07-30T01:24:30;10.97;;;5.90;;
9948;SDS011;5013;51.840;8.276;2023-07-30T01:27:01;8.50;;;5.80;;
9948;SDS011;5013;51.840;8.276;2023-07-30T01:29:48;8.63;;;6.07;;
9948;SDS011;5013;51.840;8.276;2023-07-30T01:32:20;10.37;;;6.63;;
9948;SDS011;5013;51.840;8.276;2023-07-30T01:34:50;9.37;;;6.53;;
9948;SDS011;5013;51.840;8.276;2023-07-30T01:37:18;11.57;;;6.20;;
9948;SDS011;5013;51.840;8.276;2023-07-30T01:39:44;8.27;;;6.33;;
9948;SDS011;5013;51.840;8.276;2023-07-30T01:42:12;6.57;;;5.97;;
9948;SDS011;5013;51.840;8.276;2023-07-30T01:44:37;7.40;;;6.53;;
9948;SDS011;5013;51.840;8.276;2023-07-30T01:47:03;9.60;;;7.33;;
9948;SDS011;5013;51.840;8.276;2023-07-30T01:49:28;12.50;;;8.47;;
9948;SDS011;5013;51.840;8.276;2023-07-30T01:51:54;12.70;;;8.43;;
9948;SDS011;5013;51.840;8.276;2023-07-30T01:54:19;9.83;;;7.63;;
9948;SDS011;5013;51.840;8.276;2023-07-30T01:56:45;13.47;;;7.77;;
9948;SDS011;5013;51.840;8.276;2023-07-30T01:59:11;11.93;;;8.70;;
9948;SDS011;5013;51.840;8.276;2023-07-30T02:01:36;10.93;;;7.87;;
9948;SDS011;5013;51.840;8.276;2023-07-30T02:04:02;12.10;;;8.23;;
9948;SDS011;5013;51.840;8.276;2023-07-30T02:06:27;12.57;;;8.87;;
9948;SDS011;5013;51.840;8.276;2023-07-30T02:08:53;13.90;;;8.37;;
9948;SDS011;5013;51.840;8.276;2023-07-30T02:11:18;6.97;;;6.00;;
9948;SDS011;5013;51.840;8.276;2023-07-30T02:13:44;8.77;;;4.97;;
9948;SDS011;5013;51.840;8.276;2023-07-30T02:16:09;10.97;;;4.77;;
9948;SDS011;5013;51.840;8.276;2023-07-30T02:18:35;11.10;;;5.17;;
9948;SDS011;5013;51.840;8.276;2023-07-30T02:21:00;8.87;;;4.43;;
9948;SDS011;5013;51.840;8.276;2023-07-30T02:23:26;8.13;;;4.40;;
9948;SDS011;5013;51.840;8.276;2023-07-30T02:25:52;6.60;;;4.23;;
9948;SDS011;5013;51.840;8.276;2023-07-30T02:28:18;8.40;;;4.40;;
9948;SDS011;5013;51.840;8.276;2023-07-30T02:30:43;10.20;;;4.93;;
9948;SDS011;5013;51.840;8.276;2023-07-30T02:33:09;6.87;;;4.73;;
9948;SDS011;5013;51.840;8.276;2023-07-30T02:35:34;8.73;;;4.83;;
9948;SDS011;5013;51.840;8.276;2023-07-30T02:38:00;9.90;;;4.90;;
9948;SDS011;5013;51.840;8.276;2023-07-30T02:40:25;11.50;;;4.87;;
9948;SDS011;5013;51.840;8.276;2023-07-30T02:42:51;12.80;;;5.07;;
9948;SDS011;5013;51.840;8.276;2023-07-30T02:45:16;12.87;;;5.17;;
9948;SDS011;5013;51.840;8.276;2023-07-30T02:47:43;6.63;;;4.50;;
9948;SDS011;5013;51.840;8.276;2023-07-30T02:50:08;12.40;;;5.43;;
9948;SDS011;5013;51.840;8.276;2023-07-30T02:52:34;11.60;;;4.63;;
9948;SDS011;5013;51.840;8.276;2023-07-30T02:55:00;13.73;;;5.30;;
9948;SDS011;5013;51.840;8.276;2023-07-30T02:57:25;10.97;;;4.73;;
9948;SDS011;5013;51.840;8.276;2023-07-30T02:59:51;9.60;;;5.13;;
9948;SDS011;5013;51.840;8.276;2023-07-30T03:02:16;7.60;;;5.33;;
9948;SDS011;5013;51.840;8.276;2023-07-30T03:04:42;10.77;;;5.10;;
9948;SDS011;5013;51.840;8.276;2023-07-30T03:07:08;9.20;;;5.20;;
9948;SDS011;5013;51.840;8.276;2023-07-30T03:09:34;9.20;;;5.00;;
9948;SDS011;5013;51.840;8.276;2023-07-30T03:12:00;9.87;;;4.97;;
9948;SDS011;5013;51.840;8.276;2023-07-30T03:14:26;10.50;;;5.30;;
9948;SDS011;5013;51.840;8.276;2023-07-30T03:16:51;10.83;;;4.87;;
9948;SDS011;5013;51.840;8.276;2023-07-30T03:19:17;8.20;;;4.87;;
9948;SDS011;5013;51.840;8.276;2023-07-30T03:21:42;8.47;;;4.57;;
9948;SDS011;5013;51.840;8.276;2023-07-30T03:24:08;7.33;;;4.60;;
9948;SDS011;5013;51.840;8.276;2023-07-30T03:26:33;13.27;;;4.93;;
9948;SDS011;5013;51.840;8.276;2023-07-30T03:28:59;14.23;;;5.60;;
9948;SDS011;5013;51.840;8.276;2023-07-30T03:31:24;9.93;;;4.60;;
9948;SDS011;5013;51.840;8.276;2023-07-30T03:33:50;7.53;;;4.83;;
9948;SDS011;5013;51.840;8.276;2023-07-30T03:36:16;11.10;;;4.57;;
9948;SDS011;5013;51.840;8.276;2023-07-30T03:38:42;8.90;;;4.70;;
9948;SDS011;5013;51.840;8.276;2023-07-30T03:41:08;9.67;;;4.57;;
9948;SDS011;5013;51.840;8.276;2023-07-30T03:43:35;9.43;;;5.37;;
9948;SDS011;5013;51.840;8.276;2023-07-30T03:46:01;12.63;;;5.03;;
9948;SDS011;5013;51.840;8.276;2023-07-30T03:48:26;7.70;;;5.00;;
9948;SDS011;5013;51.840;8.276;2023-07-30T03:50:53;12.20;;;5.70;;
9948;SDS011;5013;51.840;8.276;2023-07-30T03:53:19;15.17;;;5.20;;
9948;SDS011;5013;51.840;8.276;2023-07-30T03:55:45;12.40;;;4.83;;
9948;SDS011;5013;51.840;8.276;2023-07-30T03:58:10;7.67;;;4.43;;
9948;SDS011;5013;51.840;8.276;2023-07-30T04:00:36;10.73;;;4.50;;
9948;SDS011;5013;51.840;8.276;2023-07-30T04:03:02;13.17;;;4.93;;
9948;SDS011;5013;51.840;8.276;2023-07-30T04:05:28;6.97;;;4.00;;
9948;SDS011;5013;51.840;8.276;2023-07-30T04:07:54;8.47;;;4.90;;
9948;SDS011;5013;51.840;8.276;2023-07-30T04:10:20;10.73;;;4.47;;
9948;SDS011;5013;51.840;8.276;2023-07-30T04:12:45;7.30;;;5.00;;
9948;SDS011;5013;51.840;8.276;2023-07-30T04:15:11;10.50;;;4.83;;
9948;SDS011;5013;51.840;8.276;2023-07-30T04:17:37;16.80;;;5.47;;
9948;SDS011;5013;51.840;8.276;2023-07-30T04:20:02;15.57;;;4.80;;
9948;SDS011;5013;51.840;8.276;2023-07-30T04:22:29;11.90;;;5.10;;
9948;SDS011;5013;51.840;8.276;2023-07-30T04:24:55;12.20;;;5.10;;
9948;SDS011;5013;51.840;8.276;2023-07-30T04:27:20;9.13;;;4.70;;
9948;SDS011;5013;51.840;8.276;2023-07-30T04:29:46;10.47;;;4.57;;
9948;SDS011;5013;51.840;8.276;2023-07-30T04:32:12;8.70;;;4.20;;
9948;SDS011;5013;51.840;8.276;2023-07-30T04:34:37;12.17;;;4.90;;
9948;SDS011;5013;51.840;8.276;2023-07-30T04:37:03;12.10;;;4.93;;
9948;SDS011;5013;51.840;8.276;2023-07-30T04:39:29;8.80;;;5.07;;
9948;SDS011;5013;51.840;8.276;2023-07-30T04:41:57;7.33;;;4.60;;
9948;SDS011;5013;51.840;8.276;2023-07-30T04:44:22;6.27;;;4.43;;
9948;SDS011;5013;51.840;8.276;2023-07-30T04:46:48;9.97;;;4.80;;
9948;SDS011;5013;51.840;8.276;2023-07-30T04:49:14;15.33;;;4.73;;
9948;SDS011;5013;51.840;8.276;2023-07-30T04:51:39;11.23;;;4.53;;
9948;SDS011;5013;51.840;8.276;2023-07-30T04:54:05;11.87;;;4.87;;
9948;SDS011;5013;51.840;8.276;2023-07-30T04:56:30;7.83;;;4.50;;
9948;SDS011;5013;51.840;8.276;2023-07-30T04:58:56;6.10;;;4.53;;
9948;SDS011;5013;51.840;8.276;2023-07-30T05:01:21;9.70;;;4.13;;
9948;SDS011;5013;51.840;8.276;2023-07-30T05:03:48;9.43;;;4.03;;
9948;SDS011;5013;51.840;8.276;2023-07-30T05:06:14;6.20;;;3.37;;
9948;SDS011;5013;51.840;8.276;2023-07-30T05:08:40;5.43;;;3.47;;
9948;SDS011;5013;51.840;8.276;2023-07-30T05:11:05;4.73;;;3.20;;
9948;SDS011;5013;51.840;8.276;2023-07-30T05:13:31;5.67;;;3.53;;
9948;SDS011;5013;51.840;8.276;2023-07-30T05:15:56;7.30;;;3.67;;
9948;SDS011;5013;51.840;8.276;2023-07-30T05:18:22;11.40;;;3.80;;
9948;SDS011;5013;51.840;8.276;2023-07-30T05:20:47;6.60;;;3.53;;
9948;SDS011;5013;51.840;8.276;2023-07-30T05:23:14;4.50;;;3.30;;
9948;SDS011;5013;51.840;8.276;2023-07-30T05:25:39;13.83;;;4.33;;
9948;SDS011;5013;51.840;8.276;2023-07-30T05:28:05;9.27;;;4.00;;
9948;SDS011;5013;51.840;8.276;2023-07-30T05:30:31;8.27;;;3.60;;
9948;SDS011;5013;51.840;8.276;2023-07-30T05:32:56;6.90;;;3.60;;
9948;SDS011;5013;51.840;8.276;2023-07-30T05:35:22;7.83;;;3.67;;
9948;SDS011;5013;51.840;8.276;2023-07-30T05:37:47;7.00;;;3.77;;
9948;SDS011;5013;51.840;8.276;2023-07-30T05:40:13;7.93;;;3.83;;
9948;SDS011;5013;51.840;8.276;2023-07-30T05:42:38;8.40;;;3.57;;
9948;SDS011;5013;51.840;8.276;2023-07-30T05:45:04;9.00;;;3.60;;
9948;SDS011;5013;51.840;8.276;2023-07-30T05:47:30;10.47;;;4.17;;
9948;SDS011;5013;51.840;8.276;2023-07-30T05:49:56;8.97;;;3.67;;
9948;SDS011;5013;51.840;8.276;2023-07-30T05:52:21;10.83;;;3.53;;
9948;SDS011;5013;51.840;8.276;2023-07-30T05:54:47;10.40;;;3.80;;
9948;SDS011;5013;51.840;8.276;2023-07-30T05:57:12;10.30;;;3.47;;
9948;SDS011;5013;51.840;8.276;2023-07-30T05:59:38;8.63;;;4.00;;
9948;SDS011;5013;51.840;8.276;2023-07-30T06:02:03;9.23;;;3.83;;
9948;SDS011;5013;51.840;8.276;2023-07-30T06:04:29;12.00;;;3.93;;
9948;SDS011;5013;51.840;8.276;2023-07-30T06:06:55;6.63;;;3.30;;
9948;SDS011;5013;51.840;8.276;2023-07-30T06:09:21;10.57;;;4.00;;
9948;SDS011;5013;51.840;8.276;2023-07-30T06:11:46;10.63;;;3.50;;
9948;SDS011;5013;51.840;8.276;2023-07-30T06:14:12;7.47;;;3.30;;
9948;SDS011;5013;51.840;8.276;2023-07-30T06:16:37;7.33;;;3.50;;
9948;SDS011;5013;51.840;8.276;2023-07-30T06:19:03;5.83;;;3.60;;
9948;SDS011;5013;51.840;8.276;2023-07-30T06:21:28;8.47;;;3.77;;
9948;SDS011;5013;51.840;8.276;2023-07-30T06:23:54;9.33;;;4.00;;
9948;SDS011;5013;51.840;8.276;2023-07-30T06:26:19;14.57;;;4.53;;
9948;SDS011;5013;51.840;8.276;2023-07-30T06:28:45;13.10;;;5.80;;
9948;SDS011;5013;51.840;8.276;2023-07-30T06:31:10;11.17;;;5.43;;
9948;SDS011;5013;51.840;8.276;2023-07-30T06:33:36;11.10;;;5.57;;
9948;SDS011;5013;51.840;8.276;2023-07-30T06:36:02;11.57;;;5.97;;
9948;SDS011;5013;51.840;8.276;2023-07-30T06:38:29;17.57;;;6.13;;
9948;SDS011;5013;51.840;8.276;2023-07-30T06:40:54;15.30;;;6.60;;
9948;SDS011;5013;51.840;8.276;2023-07-30T06:43:22;21.00;;;6.53;;
9948;SDS011;5013;51.840;8.276;2023-07-30T06:45:48;16.17;;;6.80;;
9948;SDS011;5013;51.840;8.276;2023-07-30T06:48:14;12.87;;;7.13;;
9948;SDS011;5013;51.840;8.276;2023-07-30T06:50:40;13.20;;;8.97;;
9948;SDS011;5013;51.840;8.276;2023-07-30T06:53:06;15.77;;;8.00;;
9948;SDS011;5013;51.840;8.276;2023-07-30T06:55:32;16.00;;;8.00;;
9948;SDS011;5013;51.840;8.276;2023-07-30T06:57:57;13.50;;;7.80;;
9948;SDS011;5013;51.840;8.276;2023-07-30T07:00:23;17.47;;;7.73;;
9948;SDS011;5013;51.840;8.276;2023-07-30T07:02:49;13.30;;;6.57;;
9948;SDS011;5013;51.840;8.276;2023-07-30T07:05:15;17.10;;;7.37;;
9948;SDS011;5013;51.840;8.276;2023-07-30T07:07:41;16.47;;;7.90;;
9948;SDS011;5013;51.840;8.276;2023-07-30T07:10:06;13.30;;;7.70;;
9948;SDS011;5013;51.840;8.276;2023-07-30T07:12:32;18.13;;;8.27;;
9948;SDS011;5013;51.840;8.276;2023-07-30T07:14:58;15.10;;;8.00;;
9948;SDS011;5013;51.840;8.276;2023-07-30T07:17:26;15.33;;;7.30;;
9948;SDS011;5013;51.840;8.276;2023-07-30T07:19:52;14.37;;;8.17;;
9948;SDS011;5013;51.840;8.276;2023-07-30T07:22:17;17.47;;;8.20;;
9948;SDS011;5013;51.840;8.276;2023-07-30T07:24:44;12.17;;;8.53;;
9948;SDS011;5013;51.840;8.276;2023-07-30T07:27:09;20.60;;;8.57;;
9948;SDS011;5013;51.840;8.276;2023-07-30T07:29:35;14.90;;;8.50;;
9948;SDS011;5013;51.840;8.276;2023-07-30T07:32:01;18.50;;;8.17;;
9948;SDS011;5013;51.840;8.276;2023-07-30T07:34:26;13.93;;;8.13;;
9948;SDS011;5013;51.840;8.276;2023-07-30T07:36:52;13.27;;;7.30;;
9948;SDS011;5013;51.840;8.276;2023-07-30T07:39:17;15.63;;;8.00;;
9948;SDS011;5013;51.840;8.276;2023-07-30T07:41:44;18.67;;;7.50;;
9948;SDS011;5013;51.840;8.276;2023-07-30T07:44:09;21.43;;;8.60;;
9948;SDS011;5013;51.840;8.276;2023-07-30T07:46:35;22.87;;;8.20;;
9948;SDS011;5013;51.840;8.276;2023-07-30T07:49:01;24.53;;;8.50;;
9948;SDS011;5013;51.840;8.276;2023-07-30T07:51:26;17.70;;;8.27;;
9948;SDS011;5013;51.840;8.276;2023-07-30T07:53:52;14.40;;;9.60;;
9948;SDS011;5013;51.840;8.276;2023-07-30T07:56:17;16.77;;;9.10;;
9948;SDS011;5013;51.840;8.276;2023-07-30T07:58:43;15.17;;;9.17;;
9948;SDS011;5013;51.840;8.276;2023-07-30T08:01:09;22.70;;;12.20;;
9948;SDS011;5013;51.840;8.276;2023-07-30T08:03:34;17.77;;;10.60;;
9948;SDS011;5013;51.840;8.276;2023-07-30T08:06:00;21.00;;;11.63;;
9948;SDS011;5013;51.840;8.276;2023-07-30T08:08:26;24.63;;;13.43;;
9948;SDS011;5013;51.840;8.276;2023-07-30T08:10:52;26.40;;;15.23;;
9948;SDS011;5013;51.840;8.276;2023-07-30T08:13:18;21.27;;;14.63;;
9948;SDS011;5013;51.840;8.276;2023-07-30T08:15:43;22.00;;;14.43;;
9948;SDS011;5013;51.840;8.276;2023-07-30T08:18:09;27.43;;;15.70;;
9948;SDS011;5013;51.840;8.276;2023-07-30T08:20:35;25.50;;;16.47;;
9948;SDS011;5013;51.840;8.276;2023-07-30T08:23:01;32.93;;;15.20;;
9948;SDS011;5013;51.840;8.276;2023-07-30T08:25:27;17.67;;;13.23;;
9948;SDS011;5013;51.840;8.276;2023-07-30T08:27:52;24.13;;;14.07;;
9948;SDS011;5013;51.840;8.276;2023-07-30T08:30:18;25.00;;;16.10;;
9948;SDS011;5013;51.840;8.276;2023-07-30T08:32:43;29.60;;;14.53;;
9948;SDS011;5013;51.840;8.276;2023-07-30T08:35:09;24.47;;;15.33;;
9948;SDS011;5013;51.840;8.276;2023-07-30T08:37:35;23.00;;;15.07;;
9948;SDS011;5013;51.840;8.276;2023-07-30T08:40:01;23.80;;;14.10;;
9948;SDS011;5013;51.840;8.276;2023-07-30T08:42:27;28.33;;;17.77;;
9948;SDS011;5013;51.840;8.276;2023-07-30T08:44:53;22.13;;;16.97;;
9948;SDS011;5013;51.840;8.276;2023-07-30T08:47:19;27.47;;;19.37;;
9948;SDS011;5013;51.840;8.276;2023-07-30T08:49:45;31.50;;;19.87;;
9948;SDS011;5013;51.840;8.276;2023-07-30T08:52:10;27.03;;;18.53;;
9948;SDS011;5013;51.840;8.276;2023-07-30T08:54:36;29.03;;;18.77;;
9948;SDS011;5013;51.840;8.276;2023-07-30T08:57:04;27.50;;;18.10;;
9948;SDS011;5013;51.840;8.276;2023-07-30T08:59:35;28.00;;;17.43;;
9948;SDS011;5013;51.840;8.276;2023-07-30T09:02:07;21.00;;;17.23;;
9948;SDS011;5013;51.840;8.276;2023-07-30T09:04:42;22.33;;;16.23;;
9948;SDS011;5013;51.840;8.276;2023-07-30T09:07:13;24.47;;;16.10;;
9948;SDS011;5013;51.840;8.276;2023-07-30T09:09:39;24.00;;;16.87;;
9948;SDS011;5013;51.840;8.276;2023-07-30T09:12:12;28.23;;;16.57;;
9948;SDS011;5013;51.840;8.276;2023-07-30T09:14:38;17.53;;;12.27;;
9948;SDS011;5013;51.840;8.276;2023-07-30T09:17:05;26.60;;;13.77;;
9948;SDS011;5013;51.840;8.276;2023-07-30T09:19:34;19.30;;;12.80;;
9948;SDS011;5013;51.840;8.276;2023-07-30T09:22:03;19.30;;;11.97;;
9948;SDS011;5013;51.840;8.276;2023-07-30T09:24:30;16.27;;;10.97;;
9948;SDS011;5013;51.840;8.276;2023-07-30T09:26:57;21.73;;;11.70;;
9948;SDS011;5013;51.840;8.276;2023-07-30T09:29:27;22.50;;;11.57;;
9948;SDS011;5013;51.840;8.276;2023-07-30T09:31:53;18.37;;;11.03;;
9948;SDS011;5013;51.840;8.276;2023-07-30T09:34:20;17.27;;;11.83;;
9948;SDS011;5013;51.840;8.276;2023-07-30T09:36:49;25.67;;;11.97;;
9948;SDS011;5013;51.840;8.276;2023-07-30T09:39:28;16.80;;;11.13;;
9948;SDS011;5013;51.840;8.276;2023-07-30T09:41:59;17.53;;;10.53;;
9948;SDS011;5013;51.840;8.276;2023-07-30T09:44:25;15.57;;;10.10;;
9948;SDS011;5013;51.840;8.276;2023-07-30T09:46:52;18.70;;;11.53;;
9948;SDS011;5013;51.840;8.276;2023-07-30T09:49:17;14.73;;;9.93;;
9948;SDS011;5013;51.840;8.276;2023-07-30T09:51:43;16.00;;;10.67;;
9948;SDS011;5013;51.840;8.276;2023-07-30T09:54:11;18.03;;;11.37;;
9948;SDS011;5013;51.840;8.276;2023-07-30T09:56:38;14.27;;;11.73;;
9948;SDS011;5013;51.840;8.276;2023-07-30T09:59:04;18.23;;;12.73;;
9948;SDS011;5013;51.840;8.276;2023-07-30T10:01:31;21.97;;;11.73;;
9948;SDS011;5013;51.840;8.276;2023-07-30T10:03:59;22.57;;;13.07;;
9948;SDS011;5013;51.840;8.276;2023-07-30T10:06:31;15.43;;;11.90;;
9948;SDS011;5013;51.840;8.276;2023-07-30T10:09:00;15.93;;;11.63;;
9948;SDS011;5013;51.840;8.276;2023-07-30T10:11:26;16.67;;;10.83;;
9948;SDS011;5013;51.840;8.276;2023-07-30T10:13:53;13.63;;;11.47;;
9948;SDS011;5013;51.840;8.276;2023-07-30T10:16:24;15.73;;;11.63;;
9948;SDS011;5013;51.840;8.276;2023-07-30T10:18:55;16.40;;;11.80;;
9948;SDS011;5013;51.840;8.276;2023-07-30T10:21:25;20.67;;;11.70;;
9948;SDS011;5013;51.840;8.276;2023-07-30T10:23:59;13.93;;;10.17;;
9948;SDS011;5013;51.840;8.276;2023-07-30T10:26:28;20.67;;;10.93;;
9948;SDS011;5013;51.840;8.276;2023-07-30T10:29:18;14.70;;;9.47;;
9948;SDS011;5013;51.840;8.276;2023-07-30T10:31:54;15.20;;;10.00;;
9948;SDS011;5013;51.840;8.276;2023-07-30T10:34:21;16.57;;;9.87;;
9948;SDS011;5013;51.840;8.276;2023-07-30T10:36:50;15.43;;;8.37;;
9948;SDS011;5013;51.840;8.276;2023-07-30T10:39:20;11.83;;;8.00;;
9948;SDS011;5013;51.840;8.276;2023-07-30T10:41:51;13.30;;;7.60;;
9948;SDS011;5013;51.840;8.276;2023-07-30T10:44:25;14.07;;;7.07;;
9948;SDS011;5013;51.840;8.276;2023-07-30T10:46:58;16.00;;;7.93;;
9948;SDS011;5013;51.840;8.276;2023-07-30T10:49:25;15.30;;;6.90;;
9948;SDS011;5013;51.840;8.276;2023-07-30T10:51:51;13.53;;;6.53;;
9948;SDS011;5013;51.840;8.276;2023-07-30T10:54:18;19.10;;;6.77;;
9948;SDS011;5013;51.840;8.276;2023-07-30T10:56:45;11.77;;;6.67;;
9948;SDS011;5013;51.840;8.276;2023-07-30T10:59:11;16.53;;;6.17;;
9948;SDS011;5013;51.840;8.276;2023-07-30T11:01:38;12.47;;;5.80;;
9948;SDS011;5013;51.840;8.276;2023-07-30T11:04:06;12.13;;;6.17;;
9948;SDS011;5013;51.840;8.276;2023-07-30T11:06:34;12.97;;;5.83;;
9948;SDS011;5013;51.840;8.276;2023-07-30T11:09:00;9.37;;;4.53;;
9948;SDS011;5013;51.840;8.276;2023-07-30T11:11:25;8.07;;;5.10;;
9948;SDS011;5013;51.840;8.276;2023-07-30T11:13:51;8.40;;;5.17;;
9948;SDS011;5013;51.840;8.276;2023-07-30T11:16:17;10.03;;;5.30;;
9948;SDS011;5013;51.840;8.276;2023-07-30T11:18:43;15.53;;;5.47;;
9948;SDS011;5013;51.840;8.276;2023-07-30T11:21:09;8.67;;;4.97;;
9948;SDS011;5013;51.840;8.276;2023-07-30T11:23:37;11.20;;;4.37;;
9948;SDS011;5013;51.840;8.276;2023-07-30T11:26:05;10.70;;;4.37;;
9948;SDS011;5013;51.840;8.276;2023-07-30T11:28:33;8.47;;;4.23;;
9948;SDS011;5013;51.840;8.276;2023-07-30T11:31:03;9.37;;;3.90;;
9948;SDS011;5013;51.840;8.276;2023-07-30T11:33:37;8.23;;;3.20;;
9948;SDS011;5013;51.840;8.276;2023-07-30T11:36:18;8.93;;;4.00;;
9948;SDS011;5013;51.840;8.276;2023-07-30T11:38:46;8.80;;;3.60;;
9948;SDS011;5013;51.840;8.276;2023-07-30T11:41:12;8.03;;;3.30;;
9948;SDS011;5013;51.840;8.276;2023-07-30T11:43:42;9.57;;;3.70;;
9948;SDS011;5013;51.840;8.276;2023-07-30T11:46:12;9.30;;;3.23;;
9948;SDS011;5013;51.840;8.276;2023-07-30T11:48:40;5.20;;;2.53;;
9948;SDS011;5013;51.840;8.276;2023-07-30T11:51:17;5.87;;;2.93;;
9948;SDS011;5013;51.840;8.276;2023-07-30T11:56:17;6.47;;;2.90;;
9948;SDS011;5013;51.840;8.276;2023-07-30T11:58:43;8.50;;;2.70;;
9948;SDS011;5013;51.840;8.276;2023-07-30T12:01:08;7.30;;;2.73;;
9948;SDS011;5013;51.840;8.276;2023-07-30T12:03:34;9.07;;;3.00;;
9948;SDS011;5013;51.840;8.276;2023-07-30T12:06:04;6.27;;;2.80;;
9948;SDS011;5013;51.840;8.276;2023-07-30T12:08:30;7.87;;;2.30;;
9948;SDS011;5013;51.840;8.276;2023-07-30T12:11:01;6.77;;;2.97;;
9948;SDS011;5013;51.840;8.276;2023-07-30T12:13:28;6.17;;;2.60;;
9948;SDS011;5013;51.840;8.276;2023-07-30T12:15:54;8.70;;;3.30;;
9948;SDS011;5013;51.840;8.276;2023-07-30T12:18:20;7.73;;;2.80;;
9948;SDS011;5013;51.840;8.276;2023-07-30T12:20:47;8.53;;;3.23;;
9948;SDS011;5013;51.840;8.276;2023-07-30T12:23:13;8.17;;;3.30;;
9948;SDS011;5013;51.840;8.276;2023-07-30T12:25:39;7.03;;;2.70;;
9948;SDS011;5013;51.840;8.276;2023-07-30T12:28:04;5.93;;;2.77;;
9948;SDS011;5013;51.840;8.276;2023-07-30T12:30:30;7.57;;;2.93;;
9948;SDS011;5013;51.840;8.276;2023-07-30T12:32:56;8.23;;;2.90;;
9948;SDS011;5013;51.840;8.276;2023-07-30T12:35:22;5.33;;;2.77;;
9948;SDS011;5013;51.840;8.276;2023-07-30T12:37:48;8.60;;;2.67;;
9948;SDS011;5013;51.840;8.276;2023-07-30T12:40:14;7.20;;;2.90;;
9948;SDS011;5013;51.840;8.276;2023-07-30T12:42:39;6.03;;;2.60;;
9948;SDS011;5013;51.840;8.276;2023-07-30T12:45:05;10.10;;;2.80;;
9948;SDS011;5013;51.840;8.276;2023-07-30T12:47:31;5.37;;;2.13;;
9948;SDS011;5013;51.840;8.276;2023-07-30T12:49:57;6.13;;;2.50;;
9948;SDS011;5013;51.840;8.276;2023-07-30T12:52:22;6.53;;;2.20;;
9948;SDS011;5013;51.840;8.276;2023-07-30T12:54:48;4.30;;;2.23;;
9948;SDS011;5013;51.840;8.276;2023-07-30T12:57:14;8.77;;;2.53;;
9948;SDS011;5013;51.840;8.276;2023-07-30T12:59:40;8.27;;;2.73;;
9948;SDS011;5013;51.840;8.276;2023-07-30T13:02:05;5.90;;;2.40;;
9948;SDS011;5013;51.840;8.276;2023-07-30T13:04:31;8.83;;;2.70;;
9948;SDS011;5013;51.840;8.276;2023-07-30T13:06:56;10.70;;;3.07;;
9948;SDS011;5013;51.840;8.276;2023-07-30T13:09:22;7.30;;;3.63;;
9948;SDS011;5013;51.840;8.276;2023-07-30T13:11:48;8.33;;;4.37;;
9948;SDS011;5013;51.840;8.276;2023-07-30T13:14:13;9.17;;;3.30;;
9948;SDS011;5013;51.840;8.276;2023-07-30T13:16:40;13.83;;;8.57;;
9948;SDS011;5013;51.840;8.276;2023-07-30T13:19:05;11.07;;;4.83;;
9948;SDS011;5013;51.840;8.276;2023-07-30T13:21:31;10.77;;;2.67;;
9948;SDS011;5013;51.840;8.276;2023-07-30T13:23:56;13.17;;;2.83;;
9948;SDS011;5013;51.840;8.276;2023-07-30T13:26:22;7.57;;;2.80;;
9948;SDS011;5013;51.840;8.276;2023-07-30T13:28:48;11.83;;;2.60;;
9948;SDS011;5013;51.840;8.276;2023-07-30T13:31:15;6.17;;;3.10;;
9948;SDS011;5013;51.840;8.276;2023-07-30T13:33:40;8.50;;;2.77;;
9948;SDS011;5013;51.840;8.276;2023-07-30T13:36:07;6.20;;;2.67;;
9948;SDS011;5013;51.840;8.276;2023-07-30T13:38:33;8.23;;;2.20;;
9948;SDS011;5013;51.840;8.276;2023-07-30T13:40:59;5.67;;;2.20;;
9948;SDS011;5013;51.840;8.276;2023-07-30T13:43:24;6.53;;;2.50;;
9948;SDS011;5013;51.840;8.276;2023-07-30T13:45:50;17.80;;;10.73;;
9948;SDS011;5013;51.840;8.276;2023-07-30T13:48:17;17.97;;;11.43;;
9948;SDS011;5013;51.840;8.276;2023-07-30T13:50:42;8.43;;;5.77;;
9948;SDS011;5013;51.840;8.276;2023-07-30T13:53:08;6.00;;;3.73;;
9948;SDS011;5013;51.840;8.276;2023-07-30T13:55:34;7.90;;;3.97;;
9948;SDS011;5013;51.840;8.276;2023-07-30T13:57:59;11.07;;;4.00;;
9948;SDS011;5013;51.840;8.276;2023-07-30T14:00:25;16.97;;;9.23;;
9948;SDS011;5013;51.840;8.276;2023-07-30T14:02:50;17.93;;;12.23;;
9948;SDS011;5013;51.840;8.276;2023-07-30T14:05:16;9.67;;;2.97;;
9948;SDS011;5013;51.840;8.276;2023-07-30T14:07:41;6.70;;;5.97;;
9948;SDS011;5013;51.840;8.276;2023-07-30T14:10:07;8.83;;;4.07;;
9948;SDS011;5013;51.840;8.276;2023-07-30T14:12:34;4.87;;;2.80;;
9948;SDS011;5013;51.840;8.276;2023-07-30T14:14:59;4.87;;;2.37;;
9948;SDS011;5013;51.840;8.276;2023-07-30T14:17:26;3.73;;;2.13;;
9948;SDS011;5013;51.840;8.276;2023-07-30T14:19:52;5.97;;;2.80;;
9948;SDS011;5013;51.840;8.276;2023-07-30T14:22:20;6.70;;;2.37;;
9948;SDS011;5013;51.840;8.276;2023-07-30T14:24:46;5.93;;;2.30;;
9948;SDS011;5013;51.840;8.276;2023-07-30T14:27:11;10.67;;;2.67;;
9948;SDS011;5013;51.840;8.276;2023-07-30T14:29:37;8.60;;;2.60;;
9948;SDS011;5013;51.840;8.276;2023-07-30T14:32:03;10.33;;;5.83;;
9948;SDS011;5013;51.840;8.276;2023-07-30T14:34:28;27.43;;;16.07;;
9948;SDS011;5013;51.840;8.276;2023-07-30T14:36:54;18.80;;;10.03;;
9948;SDS011;5013;51.840;8.276;2023-07-30T14:39:20;18.03;;;8.20;;
9948;SDS011;5013;51.840;8.276;2023-07-30T14:41:45;4.30;;;2.77;;
9948;SDS011;5013;51.840;8.276;2023-07-30T14:44:11;8.47;;;3.00;;
9948;SDS011;5013;51.840;8.276;2023-07-30T14:46:36;6.73;;;2.73;;
9948;SDS011;5013;51.840;8.276;2023-07-30T14:49:02;6.97;;;2.30;;
9948;SDS011;5013;51.840;8.276;2023-07-30T14:51:28;4.83;;;2.00;;
9948;SDS011;5013;51.840;8.276;2023-07-30T14:53:53;8.57;;;2.30;;
9948;SDS011;5013;51.840;8.276;2023-07-30T14:56:19;5.93;;;2.10;;
9948;SDS011;5013;51.840;8.276;2023-07-30T14:58:44;4.73;;;2.33;;
9948;SDS011;5013;51.840;8.276;2023-07-30T15:01:10;4.13;;;2.03;;
9948;SDS011;5013;51.840;8.276;2023-07-30T15:03:35;5.43;;;2.17;;